createdAt,value
2022-11-28T00:01:37.128Z,4.20
2022-11-28T00:04:07.302Z,4.30
2022-11-28T00:06:38.541Z,4.20
2022-11-28T00:09:07.384Z,4.20
2022-11-28T00:11:35.559Z,4.20
2022-11-28T00:14:03.752Z,4.30
2022-11-28T00:16:31.884Z,4.20
2022-11-28T00:19:02.015Z,4.30
2022-11-28T00:21:32.147Z,4.30
2022-11-28T00:24:01.693Z,4.30
2022-11-28T00:26:32.207Z,4.30
2022-11-28T00:29:00.727Z,4.30
2022-11-28T00:31:30.690Z,4.30
2022-11-28T00:33:58.985Z,4.30
2022-11-28T00:36:27.027Z,4.30
2022-11-28T00:38:56.563Z,4.30
2022-11-28T00:41:27.040Z,4.30
2022-11-28T00:43:55.404Z,4.30
2022-11-28T00:46:24.252Z,4.30
2022-11-28T00:48:52.816Z,4.20
2022-11-28T00:51:23.490Z,4.20
2022-11-28T00:53:53.348Z,4.20
2022-11-28T00:56:25.610Z,4.20
2022-11-28T00:58:53.875Z,4.20
2022-11-28T01:01:25.498Z,4.20
2022-11-28T01:03:55.155Z,4.20
2022-11-28T01:06:24.995Z,4.10
2022-11-28T01:08:53.579Z,4.10
2022-11-28T01:11:23.919Z,4.10
2022-11-28T01:13:54.425Z,4.10
2022-11-28T01:16:22.473Z,4.10
2022-11-28T01:18:50.577Z,4.10
2022-11-28T01:21:18.808Z,4.10
2022-11-28T01:23:47.101Z,4.10
2022-11-28T01:26:18.375Z,4.10
2022-11-28T01:28:48.172Z,4.10
2022-11-28T01:31:18.839Z,4.10
2022-11-28T01:33:46.921Z,4.10
2022-11-28T01:36:16.134Z,4.20
2022-11-28T01:38:44.548Z,4.10
2022-11-28T01:41:13.676Z,4.00
2022-11-28T01:43:59.746Z,4.00
2022-11-28T01:46:27.817Z,4.00
2022-11-28T01:48:58.645Z,4.00
2022-11-28T01:51:26.851Z,4.00
2022-11-28T01:53:55.745Z,4.00
2022-11-28T01:56:28.189Z,3.90
2022-11-28T01:59:01.982Z,4.00
2022-11-28T02:01:30.208Z,3.90
2022-11-28T02:03:59.767Z,3.90
2022-11-28T02:06:29.435Z,3.90
2022-11-28T02:08:58.943Z,3.90
2022-11-28T02:12:02.113Z,3.90
2022-11-28T02:15:07.203Z,4.00
2022-11-28T02:17:45.096Z,3.90
2022-11-28T02:20:48.657Z,4.00
2022-11-28T02:23:25.331Z,3.90
2022-11-28T02:26:11.917Z,3.90
2022-11-28T02:29:14.259Z,3.90
2022-11-28T02:32:17.999Z,3.90
2022-11-28T02:34:56.096Z,3.90
2022-11-28T02:37:31.150Z,3.80
2022-11-28T02:40:09.836Z,3.80
2022-11-28T02:42:46.519Z,3.80
2022-11-28T02:45:21.141Z,3.80
2022-11-28T02:47:55.637Z,3.80
2022-11-28T02:50:29.593Z,3.80
2022-11-28T02:53:03.453Z,3.80
2022-11-28T02:55:32.132Z,3.80
2022-11-28T02:58:00.166Z,3.80
2022-11-28T03:00:30.931Z,3.80
2022-11-28T03:03:25.133Z,3.80
2022-11-28T03:05:59.442Z,3.80
2022-11-28T03:08:38.140Z,3.80
2022-11-28T03:11:15.526Z,3.80
2022-11-28T03:13:53.813Z,3.80
2022-11-28T03:16:28.917Z,3.80
2022-11-28T03:19:07.124Z,3.80
2022-11-28T03:21:43.585Z,3.80
2022-11-28T03:24:17.936Z,3.80
2022-11-28T03:26:54.260Z,3.80
2022-11-28T03:29:26.833Z,3.80
2022-11-28T03:31:59.384Z,3.80
2022-11-28T03:34:34.130Z,3.90
2022-11-28T03:37:07.200Z,3.80
2022-11-28T03:39:39.254Z,3.80
2022-11-28T03:42:11.834Z,3.80
2022-11-28T03:44:44.145Z,3.80
2022-11-28T03:47:12.588Z,3.80
2022-11-28T03:49:46.190Z,3.80
2022-11-28T03:52:19.054Z,3.80
2022-11-28T03:54:51.983Z,3.90
2022-11-28T03:57:25.370Z,3.80
2022-11-28T03:59:55.199Z,3.80
2022-11-28T04:02:31.917Z,3.90
2022-11-28T04:05:06.212Z,3.80
2022-11-28T04:07:40.869Z,3.80
2022-11-28T04:10:14.572Z,3.90
2022-11-28T04:12:53.838Z,3.80
2022-11-28T04:15:30.362Z,3.80
2022-11-28T04:18:03.428Z,3.80
2022-11-28T04:20:40.252Z,3.80
2022-11-28T04:23:12.533Z,3.80
2022-11-28T04:25:45.663Z,3.80
2022-11-28T04:28:17.612Z,3.80
2022-11-28T04:30:47.360Z,3.80
2022-11-28T04:33:18.544Z,3.80
2022-11-28T04:35:51.506Z,3.80
2022-11-28T04:38:20.311Z,3.80
2022-11-28T04:40:52.089Z,3.80
2022-11-28T04:43:25.278Z,3.80
2022-11-28T04:45:59.473Z,3.80
2022-11-28T04:48:34.013Z,3.80
2022-11-28T04:51:14.229Z,3.70
2022-11-28T04:53:49.345Z,3.70
2022-11-28T04:56:22.999Z,3.80
2022-11-28T04:58:51.967Z,3.70
2022-11-28T05:01:22.921Z,3.70
2022-11-28T05:03:51.100Z,3.70
2022-11-28T05:06:31.995Z,3.70
2022-11-28T05:09:00.455Z,3.70
2022-11-28T05:11:29.247Z,3.70
2022-11-28T05:13:57.566Z,3.70
2022-11-28T05:16:25.643Z,3.70
2022-11-28T05:18:53.718Z,3.70
2022-11-28T05:21:21.739Z,3.70
2022-11-28T05:23:51.087Z,3.70
2022-11-28T05:26:21.126Z,3.70
2022-11-28T05:28:51.027Z,3.70
2022-11-28T05:31:20.825Z,3.70
2022-11-28T05:33:48.911Z,3.70
2022-11-28T05:36:18.061Z,3.70
2022-11-28T05:38:46.215Z,3.70
2022-11-28T05:41:22.231Z,3.70
2022-11-28T05:43:50.341Z,3.70
2022-11-28T05:46:18.717Z,3.60
2022-11-28T05:48:46.816Z,3.60
2022-11-28T05:51:14.976Z,3.70
2022-11-28T05:53:43.277Z,3.60
2022-11-28T05:56:13.768Z,3.60
2022-11-28T05:58:43.753Z,3.60
2022-11-28T06:01:13.454Z,3.70
2022-11-28T06:03:41.477Z,3.60
2022-11-28T06:06:17.853Z,3.70
2022-11-28T06:08:47.183Z,3.70
2022-11-28T06:11:16.436Z,3.70
2022-11-28T06:13:47.571Z,3.70
2022-11-28T06:16:18.298Z,3.70
2022-11-28T06:18:46.829Z,3.70
2022-11-28T06:21:16.285Z,3.70
2022-11-28T06:23:44.309Z,3.70
2022-11-28T06:26:14.231Z,3.70
2022-11-28T06:28:43.453Z,3.70
2022-11-28T06:31:15.113Z,3.70
2022-11-28T06:33:43.623Z,3.70
2022-11-28T06:36:13.228Z,3.70
2022-11-28T06:38:41.314Z,3.70
2022-11-28T06:41:12.462Z,3.70
2022-11-28T06:43:40.861Z,3.70
2022-11-28T06:46:16.206Z,3.70
2022-11-28T06:48:45.354Z,3.60
2022-11-28T06:51:14.196Z,3.70
2022-11-28T06:53:42.602Z,3.60
2022-11-28T06:56:13.964Z,3.70
2022-11-28T06:58:42.847Z,3.70
2022-11-28T07:01:15.110Z,3.70
2022-11-28T07:03:43.966Z,3.70
2022-11-28T07:06:12.831Z,3.70
2022-11-28T07:08:41.299Z,3.70
2022-11-28T07:11:13.157Z,3.70
2022-11-28T07:13:41.625Z,3.70
2022-11-28T07:16:14.184Z,3.70
2022-11-28T07:18:43.895Z,3.70
2022-11-28T07:21:14.174Z,3.70
2022-11-28T07:23:42.314Z,3.70
2022-11-28T07:26:12.794Z,3.70
2022-11-28T07:28:41.062Z,3.70
2022-11-28T07:31:11.717Z,3.70
2022-11-28T07:33:40.441Z,3.80
2022-11-28T07:36:13.993Z,3.70
2022-11-28T07:38:42.116Z,3.70
2022-11-28T07:41:12.107Z,3.80
2022-11-28T07:43:41.000Z,3.80
2022-11-28T07:46:12.192Z,3.80
2022-11-28T07:48:40.824Z,3.80
2022-11-28T07:51:12.488Z,3.80
2022-11-28T07:53:40.544Z,3.90
2022-11-28T07:56:12.992Z,3.80
2022-11-28T07:58:41.061Z,3.90
2022-11-28T08:01:12.560Z,3.90
2022-11-28T08:03:40.658Z,4.00
2022-11-28T08:06:10.248Z,4.00
2022-11-28T08:08:38.510Z,4.00
2022-11-28T08:11:08.987Z,4.00
2022-11-28T08:13:38.452Z,4.00
2022-11-28T08:16:07.511Z,4.00
2022-11-28T08:18:35.712Z,4.00
2022-11-28T08:21:09.890Z,4.10
2022-11-28T08:23:38.361Z,4.10
2022-11-28T08:26:08.536Z,4.10
2022-11-28T08:28:36.957Z,4.10
2022-11-28T08:31:10.571Z,4.10
2022-11-28T08:33:38.726Z,4.20
2022-11-28T08:36:07.506Z,4.20
2022-11-28T08:38:37.143Z,4.20
2022-11-28T08:41:06.731Z,4.20
2022-11-28T08:43:36.776Z,4.30
2022-11-28T08:46:05.414Z,4.30
2022-11-28T08:48:35.272Z,4.30
2022-11-28T08:51:03.463Z,4.30
2022-11-28T08:53:31.534Z,4.40
2022-11-28T08:56:01.233Z,4.40
2022-11-28T08:58:29.552Z,4.50
2022-11-28T09:00:57.649Z,4.50
2022-11-28T09:03:25.739Z,4.60
2022-11-28T09:05:53.835Z,4.60
2022-11-28T09:08:22.522Z,4.70
2022-11-28T09:10:50.490Z,4.80
2022-11-28T09:13:19.893Z,4.80
2022-11-28T09:15:52.536Z,4.80
2022-11-28T09:18:21.699Z,4.80
2022-11-28T09:20:49.700Z,4.90
2022-11-28T09:23:17.691Z,4.90
2022-11-28T09:25:45.691Z,5.00
2022-11-28T09:28:13.695Z,5.10
2022-11-28T09:30:43.125Z,5.10
2022-11-28T09:33:12.516Z,5.10
2022-11-28T09:35:40.682Z,5.20
2022-11-28T09:38:09.005Z,5.20
2022-11-28T09:40:39.860Z,5.20
2022-11-28T09:43:16.333Z,5.20
2022-11-28T09:45:46.950Z,5.20
2022-11-28T09:48:26.499Z,5.20
2022-11-28T09:50:58.628Z,5.20
2022-11-28T09:53:35.592Z,5.20
2022-11-28T09:56:09.993Z,5.30
2022-11-28T09:58:44.734Z,5.30
2022-11-28T10:01:21.942Z,5.30
2022-11-28T10:03:56.347Z,5.30
2022-11-28T10:06:29.831Z,5.30
2022-11-28T10:09:22.710Z,5.30
2022-11-28T10:12:05.857Z,5.30
2022-11-28T10:14:59.054Z,5.40
2022-11-28T10:17:39.697Z,5.40
2022-11-28T10:20:13.226Z,5.40
2022-11-28T10:22:47.079Z,5.40
2022-11-28T10:25:20.060Z,5.40
2022-11-28T10:27:48.773Z,5.40
2022-11-28T10:30:22.539Z,5.50
2022-11-28T10:33:00.259Z,5.50
2022-11-28T10:35:35.151Z,5.50
2022-11-28T10:38:03.410Z,5.50
2022-11-28T10:40:43.985Z,5.60
2022-11-28T10:43:25.362Z,5.60
2022-11-28T10:46:01.362Z,5.60
2022-11-28T10:48:41.897Z,5.70
2022-11-28T10:51:29.997Z,5.70
2022-11-28T10:54:10.355Z,5.70
2022-11-28T10:56:48.745Z,5.80
2022-11-28T10:59:29.363Z,5.80
2022-11-28T11:01:58.772Z,5.90
2022-11-28T11:04:29.173Z,5.90
2022-11-28T11:07:16.218Z,5.90
2022-11-28T11:09:47.568Z,5.90
2022-11-28T11:12:21.321Z,6.00
2022-11-28T11:14:49.510Z,6.00
2022-11-28T11:17:32.657Z,6.10
2022-11-28T11:20:37.566Z,6.10
2022-11-28T11:23:16.376Z,6.10
2022-11-28T11:25:50.672Z,6.10
2022-11-28T11:28:33.681Z,6.20
2022-11-28T11:31:03.218Z,6.20
2022-11-28T11:33:35.416Z,6.20
2022-11-28T11:36:07.075Z,6.30
2022-11-28T11:38:38.196Z,6.30
2022-11-28T11:41:27.915Z,6.30
2022-11-28T11:43:56.240Z,6.30
2022-11-28T11:46:24.305Z,6.30
2022-11-28T11:48:54.295Z,6.40
2022-11-28T11:51:26.090Z,6.40
2022-11-28T11:54:05.120Z,6.40
2022-11-28T11:56:37.568Z,6.40
2022-11-28T11:59:12.089Z,6.40
2022-11-28T12:01:41.567Z,6.40
2022-11-28T12:04:37.465Z,6.40
2022-11-28T12:07:16.567Z,6.40
2022-11-28T12:09:49.044Z,6.50
2022-11-28T12:12:19.561Z,6.50
2022-11-28T12:14:49.434Z,6.60
2022-11-28T12:20:45.626Z,6.60
2022-11-28T12:23:35.973Z,6.60
2022-11-28T12:26:15.481Z,6.60
2022-11-28T12:28:55.026Z,6.60
2022-11-28T12:31:36.457Z,6.60
2022-11-28T12:34:13.507Z,6.60
2022-11-28T12:36:47.922Z,6.70
2022-11-28T12:39:25.838Z,6.70
2022-11-28T12:42:20.886Z,6.70
2022-11-28T12:45:18.064Z,6.70
2022-11-28T12:47:55.702Z,6.70
2022-11-28T12:50:33.258Z,6.70
2022-11-28T12:53:15.658Z,6.70
2022-11-28T12:55:48.670Z,6.70
2022-11-28T12:58:24.439Z,6.70
2022-11-28T13:01:00.765Z,6.70
2022-11-28T13:03:42.207Z,6.70
2022-11-28T13:06:21.609Z,6.70
2022-11-28T13:08:58.691Z,6.60
2022-11-28T13:11:58.065Z,6.60
2022-11-28T13:14:35.242Z,6.50
2022-11-28T13:17:13.925Z,6.50
2022-11-28T13:19:52.251Z,6.50
2022-11-28T13:22:24.540Z,6.40
2022-11-28T13:25:03.254Z,6.40
2022-11-28T13:27:39.759Z,6.40
2022-11-28T13:30:20.242Z,6.30
2022-11-28T13:32:53.868Z,6.30
2022-11-28T13:35:22.431Z,6.30
2022-11-28T13:40:50.206Z,6.30
2022-11-28T13:43:28.411Z,6.20
2022-11-28T13:45:56.708Z,6.20
2022-11-28T13:51:41.714Z,6.30
2022-11-28T13:54:37.273Z,6.20
2022-11-28T13:57:10.960Z,6.20
2022-11-28T13:59:40.769Z,6.20
2022-11-28T14:02:21.897Z,6.20
2022-11-28T14:04:50.359Z,6.20
2022-11-28T14:07:27.495Z,6.20
2022-11-28T14:10:15.632Z,6.20
2022-11-28T14:12:52.243Z,6.20
2022-11-28T14:15:31.000Z,6.10
2022-11-28T14:18:47.869Z,6.10
2022-11-28T14:21:12.682Z,6.10
2022-11-28T14:23:48.673Z,6.10
2022-11-28T14:26:31.646Z,6.10
2022-11-28T14:29:00.485Z,6.10
2022-11-28T14:31:33.028Z,6.10
2022-11-28T14:34:03.758Z,6.10
2022-11-28T14:36:34.133Z,6.10
2022-11-28T14:39:06.159Z,6.00
2022-11-28T14:41:54.159Z,6.00
2022-11-28T14:44:50.603Z,6.00
2022-11-28T14:47:30.629Z,6.00
2022-11-28T14:50:31.969Z,5.90
2022-11-28T14:53:33.440Z,5.90
2022-11-28T14:56:12.292Z,5.90
2022-11-28T14:58:40.620Z,5.90
2022-11-28T15:01:14.515Z,5.80
2022-11-28T15:03:53.708Z,5.80
2022-11-28T15:06:25.970Z,5.80
2022-11-28T15:09:05.472Z,5.80
2022-11-28T15:12:07.978Z,5.90
2022-11-28T15:14:36.835Z,5.80
2022-11-28T15:17:07.009Z,5.80
2022-11-28T15:19:41.070Z,5.80
2022-11-28T15:22:30.072Z,5.80
2022-11-28T15:24:58.082Z,5.80
2022-11-28T15:27:28.335Z,5.80
2022-11-28T15:29:58.703Z,5.80
2022-11-28T15:32:28.865Z,5.80
2022-11-28T15:35:01.013Z,5.80
2022-11-28T15:37:32.005Z,5.80
2022-11-28T15:40:01.115Z,5.80
2022-11-28T15:42:32.333Z,5.80
2022-11-28T15:45:06.252Z,5.70
2022-11-28T15:47:34.250Z,5.70
2022-11-28T15:50:15.989Z,5.70
2022-11-28T15:52:54.234Z,5.80
2022-11-28T15:55:22.332Z,5.80
2022-11-28T15:57:50.304Z,5.70
2022-11-28T16:00:20.734Z,5.70
2022-11-28T16:02:49.650Z,5.70
2022-11-28T16:05:22.230Z,5.70
2022-11-28T16:07:52.108Z,5.70
2022-11-28T16:10:25.483Z,5.60
2022-11-28T16:13:00.859Z,5.60
2022-11-28T16:15:29.729Z,5.60
2022-11-28T16:17:57.996Z,5.60
2022-11-28T16:20:29.768Z,5.60
2022-11-28T16:23:02.467Z,5.60
2022-11-28T16:25:32.537Z,5.60
2022-11-28T16:28:00.954Z,5.60
2022-11-28T16:30:37.736Z,5.60
2022-11-28T16:33:35.907Z,5.60
2022-11-28T16:36:20.330Z,5.50
2022-11-28T16:38:49.921Z,5.50
2022-11-28T16:41:19.459Z,5.50
2022-11-28T16:43:51.013Z,5.50
2022-11-28T16:46:22.944Z,5.50
2022-11-28T16:48:55.534Z,5.50
2022-11-28T16:51:41.154Z,5.50
2022-11-28T16:54:39.108Z,5.40
2022-11-28T16:57:15.580Z,5.40
2022-11-28T16:59:45.388Z,5.40
2022-11-28T17:02:15.549Z,5.40
2022-11-28T17:04:44.141Z,5.40
2022-11-28T17:07:16.249Z,5.40
2022-11-28T17:09:45.612Z,5.40
2022-11-28T17:12:24.500Z,5.40
2022-11-28T17:14:52.498Z,5.30
2022-11-28T17:17:23.210Z,5.30
2022-11-28T17:19:51.281Z,5.40
2022-11-28T17:22:23.784Z,5.40
2022-11-28T17:24:54.333Z,5.30
2022-11-28T17:27:22.326Z,5.30
2022-11-28T17:29:50.271Z,5.30
2022-11-28T17:32:18.311Z,5.30
2022-11-28T17:34:46.926Z,5.30
2022-11-28T17:37:15.160Z,5.30
2022-11-28T17:40:04.548Z,5.30
2022-11-28T17:42:33.046Z,5.30
2022-11-28T17:45:01.063Z,5.20
2022-11-28T17:47:29.053Z,5.20
2022-11-28T17:49:57.090Z,5.20
2022-11-28T17:52:30.115Z,5.10
2022-11-28T17:55:07.005Z,5.10
2022-11-28T17:57:35.279Z,5.20
2022-11-28T18:00:04.595Z,5.20
2022-11-28T18:02:32.595Z,5.20
2022-11-28T18:05:00.859Z,5.20
2022-11-28T18:07:29.967Z,5.10
2022-11-28T18:09:59.338Z,5.10
2022-11-28T18:12:27.847Z,5.20
2022-11-28T18:14:55.825Z,5.20
2022-11-28T18:17:23.821Z,5.20
2022-11-28T18:19:57.135Z,5.20
2022-11-28T18:22:25.653Z,5.10
2022-11-28T18:24:54.101Z,5.10
2022-11-28T18:27:23.570Z,5.20
2022-11-28T18:29:51.548Z,5.10
2022-11-28T18:32:19.621Z,5.10
2022-11-28T18:34:48.412Z,5.10
2022-11-28T18:37:16.501Z,5.10
2022-11-28T18:39:44.698Z,5.20
2022-11-28T18:42:12.832Z,5.10
2022-11-28T18:44:42.244Z,5.10
2022-11-28T18:47:11.279Z,5.10
2022-11-28T18:49:39.340Z,5.20
2022-11-28T18:52:07.516Z,5.10
2022-11-28T18:54:35.568Z,5.10
2022-11-28T18:57:03.982Z,5.10
2022-11-28T18:59:31.957Z,5.10
2022-11-28T19:02:01.443Z,5.10
2022-11-28T19:04:29.564Z,5.10
2022-11-28T19:06:57.601Z,5.10
2022-11-28T19:09:25.575Z,5.10
2022-11-28T19:11:53.557Z,5.10
2022-11-28T19:14:22.162Z,5.10
2022-11-28T19:16:50.435Z,5.10
2022-11-28T19:19:19.920Z,5.10
2022-11-28T19:21:48.216Z,5.10
2022-11-28T19:24:16.265Z,5.10
2022-11-28T19:26:44.276Z,5.00
2022-11-28T19:29:12.792Z,5.10
2022-11-28T19:31:42.342Z,5.00
2022-11-28T19:34:14.756Z,5.00
2022-11-28T19:36:46.249Z,5.00
2022-11-28T19:39:18.038Z,5.00
2022-11-28T19:41:46.822Z,5.00
2022-11-28T19:44:15.978Z,5.00
2022-11-28T19:46:44.346Z,4.90
2022-11-28T19:49:18.112Z,4.90
2022-11-28T19:51:47.970Z,4.90
2022-11-28T19:54:16.173Z,4.90
2022-11-28T19:56:44.348Z,4.90
2022-11-28T19:59:13.069Z,5.00
2022-11-28T20:01:41.343Z,5.00
2022-11-28T20:04:09.849Z,5.00
2022-11-28T20:06:37.828Z,5.00
2022-11-28T20:09:09.857Z,4.90
2022-11-28T20:11:39.381Z,4.90
2022-11-28T20:14:11.137Z,4.90
2022-11-28T20:16:39.414Z,5.00
2022-11-28T20:19:08.296Z,5.00
2022-11-28T20:21:37.947Z,5.00
2022-11-28T20:24:08.272Z,5.00
2022-11-28T20:26:38.319Z,5.00
2022-11-28T20:29:06.444Z,5.00
2022-11-28T20:31:36.876Z,5.00
2022-11-28T20:34:06.048Z,4.90
2022-11-28T20:36:36.249Z,4.90
2022-11-28T20:39:05.637Z,5.00
2022-11-28T20:41:35.192Z,4.90
2022-11-28T20:44:03.179Z,4.90
2022-11-28T20:46:33.619Z,4.90
2022-11-28T20:49:03.925Z,4.90
2022-11-28T20:51:33.935Z,5.00
2022-11-28T20:54:02.356Z,5.00
2022-11-28T20:56:31.794Z,4.90
2022-11-28T20:59:02.131Z,4.90
2022-11-28T21:01:33.201Z,4.90
2022-11-28T21:04:01.709Z,4.90
2022-11-28T21:06:30.287Z,4.90
2022-11-28T21:08:58.366Z,4.90
2022-11-28T21:14:16.503Z,4.90
2022-11-28T21:16:44.541Z,4.90
2022-11-28T21:19:12.692Z,4.90
2022-11-28T21:21:42.805Z,4.90
2022-11-28T21:24:13.785Z,4.90
2022-11-28T21:26:48.071Z,4.90
2022-11-28T21:29:20.549Z,4.90
2022-11-28T21:31:48.745Z,4.90
2022-11-28T21:34:18.993Z,4.90
2022-11-28T21:36:47.113Z,4.90
2022-11-28T21:39:16.825Z,4.90
2022-11-28T21:41:44.883Z,4.90
2022-11-28T21:44:12.884Z,4.90
2022-11-28T21:46:42.318Z,4.90
2022-11-28T21:49:10.370Z,4.90
2022-11-28T21:51:38.329Z,4.90
2022-11-28T21:54:06.460Z,4.90
2022-11-28T21:56:34.433Z,4.90
2022-11-28T21:59:02.720Z,4.90
2022-11-28T22:01:30.837Z,4.90
2022-11-28T22:04:02.665Z,4.90
2022-11-28T22:06:31.457Z,4.90
2022-11-28T22:09:03.306Z,4.90
2022-11-28T22:11:35.527Z,4.90
2022-11-28T22:14:03.507Z,4.90
2022-11-28T22:16:31.634Z,5.00
2022-11-28T22:19:01.931Z,5.00
2022-11-28T22:24:18.069Z,4.90
2022-11-28T22:26:46.079Z,4.90
2022-11-28T22:29:14.177Z,4.90
2022-11-28T22:31:42.204Z,4.80
2022-11-28T22:34:11.620Z,4.90
2022-11-28T22:36:39.732Z,4.90
2022-11-28T22:39:07.758Z,4.80
2022-11-28T22:41:35.726Z,4.90
2022-11-28T22:44:04.724Z,4.80
2022-11-28T22:46:33.420Z,4.80
2022-11-28T22:49:02.304Z,4.80
2022-11-28T22:51:32.517Z,4.90
2022-11-28T22:54:02.122Z,4.90
2022-11-28T22:56:31.613Z,4.90
2022-11-28T22:59:00.114Z,4.90
2022-11-28T23:01:30.134Z,4.90
2022-11-28T23:03:58.141Z,4.90
2022-11-28T23:06:28.862Z,4.90
2022-11-28T23:08:59.171Z,4.90
2022-11-28T23:11:30.368Z,4.90
2022-11-28T23:13:58.348Z,4.90
2022-11-28T23:16:28.224Z,4.90
2022-11-28T23:18:57.901Z,4.90
2022-11-28T23:21:27.017Z,4.90
2022-11-28T23:23:55.348Z,4.90
2022-11-28T23:26:26.213Z,4.90
2022-11-28T23:28:55.085Z,4.90
2022-11-28T23:31:24.804Z,4.80
2022-11-28T23:33:53.589Z,4.80
2022-11-28T23:36:24.741Z,4.80
2022-11-28T23:38:54.976Z,4.80
2022-11-28T23:41:24.312Z,4.80
2022-11-28T23:43:52.969Z,4.80
2022-11-28T23:46:22.118Z,4.80
2022-11-28T23:48:50.176Z,4.80
2022-11-28T23:51:20.607Z,4.80
2022-11-28T23:53:48.773Z,4.80
2022-11-28T23:56:19.994Z,4.80
2022-11-28T23:58:49.421Z,4.80
